BUH YLTV-YMMB
Flight info
| Callsign | BUH |
|---|---|
| Flight time | 1h 21m |
| Altitude | 8000 |
| Route | LTV W449 MB W635 AV/N0166F070 DCT ESDAN DCT MOSVO |
| Aircraft | DA62/L-SDFGRY/C |
Departure
| Time | 2026-04-28 09:31 |
|---|---|
| Airport | Latrobe Valley Airport (YLTV) |
Arrival
| Time | 2026-04-28 10:52 |
|---|---|
| Airport | Melbourne Moorabbin Airport (YMMB) |
| Time | Latitude | Longitude | Altitude | Speed | Heading |
|---|---|---|---|---|---|
| 2026-04-28 09:23 | -38.21013 | 146.47486 | 182 ft | 0 kts | 224° |
| 2026-04-28 09:27 | -38.21018 | 146.47479 | 182 ft | 1 kts | 244° |
| 2026-04-28 09:28 | -38.21019 | 146.47474 | 181 ft | 1 kts | 254° |
| 2026-04-28 09:28 | -38.21027 | 146.47437 | 182 ft | 2 kts | 253° |
| 2026-04-28 09:28 | -38.21019 | 146.47409 | 181 ft | 9 kts | 317° |
| 2026-04-28 09:28 | -38.20949 | 146.47314 | 182 ft | 18 kts | 310° |
| 2026-04-28 09:29 | -38.20979 | 146.47238 | 182 ft | 14 kts | 222° |
| 2026-04-28 09:29 | -38.21076 | 146.47116 | 182 ft | 24 kts | 226° |
| 2026-04-28 09:29 | -38.21207 | 146.46952 | 183 ft | 26 kts | 225° |
| 2026-04-28 09:29 | -38.21346 | 146.46775 | 183 ft | 30 kts | 224° |
| 2026-04-28 09:30 | -38.21478 | 146.46604 | 180 ft | 23 kts | 225° |
| 2026-04-28 09:30 | -38.21548 | 146.46520 | 180 ft | 7 kts | 306° |
| 2026-04-28 09:30 | -38.21529 | 146.46541 | 180 ft | 8 kts | 49° |
| 2026-04-28 09:30 | -38.21375 | 146.46737 | 182 ft | 62 kts | 45° |
| 2026-04-28 09:31 | -38.20968 | 146.47254 | 275 ft | 92 kts | 45° |
| 2026-04-28 09:31 | -38.20528 | 146.47843 | 555 ft | 95 kts | 46° |
| 2026-04-28 09:31 | -38.20046 | 146.48488 | 816 ft | 101 kts | 44° |
| 2026-04-28 09:31 | -38.19761 | 146.49190 | 1268 ft | 90 kts | 85° |
| 2026-04-28 09:32 | -38.20021 | 146.49912 | 1536 ft | 98 kts | 147° |
| 2026-04-28 09:32 | -38.20446 | 146.50010 | 1741 ft | 96 kts | 202° |
| 2026-04-28 09:32 | -38.20920 | 146.49091 | 2157 ft | 95 kts | 265° |
| 2026-04-28 09:32 | -38.20781 | 146.48288 | 2506 ft | 96 kts | 287° |
| 2026-04-28 09:33 | -38.20592 | 146.47504 | 2895 ft | 93 kts | 297° |
| 2026-04-28 09:33 | -38.20120 | 146.46951 | 3259 ft | 92 kts | 303° |
| 2026-04-28 09:33 | -38.20025 | 146.46161 | 3627 ft | 92 kts | 280° |
| 2026-04-28 09:33 | -38.19934 | 146.45355 | 3979 ft | 92 kts | 279° |
| 2026-04-28 09:34 | -38.19873 | 146.44821 | 4228 ft | 92 kts | 279° |
| 2026-04-28 09:34 | -38.19777 | 146.44018 | 4600 ft | 92 kts | 279° |
| 2026-04-28 09:34 | -38.19678 | 146.43214 | 4966 ft | 92 kts | 279° |
| 2026-04-28 09:34 | -38.19576 | 146.42411 | 5336 ft | 92 kts | 279° |
| 2026-04-28 09:35 | -38.19470 | 146.41608 | 5713 ft | 92 kts | 280° |
| 2026-04-28 09:35 | -38.19360 | 146.40810 | 6096 ft | 91 kts | 280° |
| 2026-04-28 09:35 | -38.19248 | 146.40017 | 6483 ft | 91 kts | 280° |
| 2026-04-28 09:35 | -38.19144 | 146.39224 | 6865 ft | 91 kts | 278° |
| 2026-04-28 09:36 | -38.19048 | 146.38427 | 7231 ft | 92 kts | 278° |
| 2026-04-28 09:36 | -38.18948 | 146.37626 | 7602 ft | 92 kts | 279° |
| 2026-04-28 09:36 | -38.18845 | 146.36817 | 7968 ft | 94 kts | 278° |
| 2026-04-28 09:36 | -38.18723 | 146.35879 | 8006 ft | 123 kts | 279° |
| 2026-04-28 09:37 | -38.18571 | 146.34714 | 8010 ft | 139 kts | 279° |
| 2026-04-28 09:37 | -38.18412 | 146.33482 | 8009 ft | 143 kts | 279° |
| 2026-04-28 09:37 | -38.18247 | 146.32222 | 8004 ft | 145 kts | 279° |
| 2026-04-28 09:37 | -38.18078 | 146.30938 | 8005 ft | 149 kts | 279° |
| 2026-04-28 09:38 | -38.17907 | 146.29633 | 8005 ft | 150 kts | 279° |
| 2026-04-28 09:38 | -38.17735 | 146.28323 | 8005 ft | 151 kts | 279° |
| 2026-04-28 09:38 | -38.17562 | 146.27007 | 8005 ft | 151 kts | 279° |
| 2026-04-28 09:38 | -38.17388 | 146.25688 | 8005 ft | 151 kts | 279° |
| 2026-04-28 09:39 | -38.17214 | 146.24366 | 8005 ft | 152 kts | 279° |
| 2026-04-28 09:39 | -38.17038 | 146.23039 | 8001 ft | 152 kts | 279° |
| 2026-04-28 09:39 | -38.16864 | 146.21716 | 8002 ft | 152 kts | 279° |
| 2026-04-28 09:39 | -38.16688 | 146.20390 | 8000 ft | 152 kts | 279° |
| 2026-04-28 09:40 | -38.16513 | 146.19065 | 8004 ft | 152 kts | 279° |
| 2026-04-28 09:40 | -38.16338 | 146.17740 | 8005 ft | 152 kts | 279° |
| 2026-04-28 09:40 | -38.16162 | 146.16414 | 8005 ft | 152 kts | 279° |
| 2026-04-28 09:40 | -38.15987 | 146.15094 | 8003 ft | 152 kts | 279° |
| 2026-04-28 09:41 | -38.15811 | 146.13770 | 8002 ft | 152 kts | 279° |
| 2026-04-28 09:41 | -38.15637 | 146.12462 | 8001 ft | 152 kts | 279° |
| 2026-04-28 09:41 | -38.15461 | 146.11136 | 8005 ft | 152 kts | 279° |
| 2026-04-28 09:41 | -38.15273 | 146.09813 | 8006 ft | 152 kts | 282° |
| 2026-04-28 09:42 | -38.15046 | 146.08498 | 8003 ft | 152 kts | 281° |
| 2026-04-28 09:42 | -38.14824 | 146.07184 | 8006 ft | 152 kts | 281° |
| 2026-04-28 09:42 | -38.14602 | 146.05867 | 8008 ft | 152 kts | 281° |
| 2026-04-28 09:42 | -38.14380 | 146.04558 | 8005 ft | 151 kts | 281° |
| 2026-04-28 09:43 | -38.14158 | 146.03253 | 8006 ft | 151 kts | 281° |
| 2026-04-28 09:43 | -38.13936 | 146.01947 | 8006 ft | 151 kts | 281° |
| 2026-04-28 09:43 | -38.13714 | 146.00639 | 8005 ft | 151 kts | 281° |
| 2026-04-28 09:43 | -38.13494 | 145.99349 | 8006 ft | 152 kts | 281° |
| 2026-04-28 09:44 | -38.13271 | 145.98041 | 8005 ft | 152 kts | 281° |
| 2026-04-28 09:44 | -38.13048 | 145.96733 | 8006 ft | 151 kts | 281° |
| 2026-04-28 09:44 | -38.12826 | 145.95428 | 8005 ft | 151 kts | 281° |
| 2026-04-28 09:44 | -38.12602 | 145.94120 | 8004 ft | 151 kts | 281° |
| 2026-04-28 09:45 | -38.12380 | 145.92816 | 8004 ft | 151 kts | 281° |
| 2026-04-28 09:45 | -38.12156 | 145.91509 | 8004 ft | 151 kts | 281° |
| 2026-04-28 09:45 | -38.11933 | 145.90204 | 8004 ft | 151 kts | 281° |
| 2026-04-28 09:45 | -38.11710 | 145.88899 | 8006 ft | 151 kts | 281° |
| 2026-04-28 09:46 | -38.11485 | 145.87588 | 8004 ft | 152 kts | 281° |
| 2026-04-28 09:46 | -38.11259 | 145.86274 | 8003 ft | 152 kts | 281° |
| 2026-04-28 09:46 | -38.11034 | 145.84962 | 8004 ft | 152 kts | 281° |
| 2026-04-28 09:46 | -38.10809 | 145.83652 | 8004 ft | 152 kts | 281° |
| 2026-04-28 09:47 | -38.10584 | 145.82342 | 8002 ft | 152 kts | 281° |
| 2026-04-28 09:47 | -38.10359 | 145.81030 | 8004 ft | 152 kts | 281° |
| 2026-04-28 09:47 | -38.10133 | 145.79719 | 8005 ft | 152 kts | 281° |
| 2026-04-28 09:47 | -38.09907 | 145.78406 | 8000 ft | 152 kts | 281° |
| 2026-04-28 09:48 | -38.09681 | 145.77093 | 7998 ft | 152 kts | 281° |
| 2026-04-28 09:48 | -38.09455 | 145.75785 | 8000 ft | 152 kts | 281° |
| 2026-04-28 09:48 | -38.09229 | 145.74476 | 7999 ft | 152 kts | 281° |
| 2026-04-28 09:48 | -38.09003 | 145.73167 | 8000 ft | 152 kts | 281° |
| 2026-04-28 09:49 | -38.08777 | 145.71861 | 8001 ft | 152 kts | 281° |
| 2026-04-28 09:49 | -38.08554 | 145.70568 | 7999 ft | 152 kts | 281° |
| 2026-04-28 09:49 | -38.08327 | 145.69259 | 8001 ft | 152 kts | 281° |
| 2026-04-28 09:49 | -38.08100 | 145.67949 | 7998 ft | 152 kts | 281° |
| 2026-04-28 09:50 | -38.07874 | 145.66642 | 7996 ft | 152 kts | 281° |
| 2026-04-28 09:50 | -38.07647 | 145.65334 | 7995 ft | 152 kts | 281° |
| 2026-04-28 09:50 | -38.07419 | 145.64022 | 7994 ft | 152 kts | 281° |
| 2026-04-28 09:50 | -38.07188 | 145.62690 | 7998 ft | 157 kts | 281° |
| 2026-04-28 09:51 | -38.06951 | 145.61326 | 8001 ft | 160 kts | 281° |
| 2026-04-28 09:51 | -38.06710 | 145.59941 | 7999 ft | 161 kts | 281° |
| 2026-04-28 09:51 | -38.06464 | 145.58549 | 8001 ft | 162 kts | 281° |
| 2026-04-28 09:51 | -38.06214 | 145.57149 | 8000 ft | 163 kts | 282° |
| 2026-04-28 09:52 | -38.05960 | 145.55748 | 7995 ft | 163 kts | 282° |
| 2026-04-28 09:52 | -38.05702 | 145.54344 | 7993 ft | 163 kts | 282° |
| 2026-04-28 09:52 | -38.05441 | 145.52942 | 7997 ft | 163 kts | 282° |
| 2026-04-28 09:52 | -38.05176 | 145.51535 | 7996 ft | 164 kts | 282° |
| 2026-04-28 09:53 | -38.04910 | 145.50145 | 7997 ft | 164 kts | 283° |
| 2026-04-28 09:53 | -38.04637 | 145.48734 | 7995 ft | 165 kts | 283° |
| 2026-04-28 09:53 | -38.04359 | 145.47317 | 7996 ft | 165 kts | 283° |
| 2026-04-28 09:53 | -38.04125 | 145.45889 | 7991 ft | 165 kts | 278° |
| 2026-04-28 09:54 | -38.03961 | 145.44448 | 7993 ft | 165 kts | 278° |
| 2026-04-28 09:54 | -38.03748 | 145.43012 | 7991 ft | 165 kts | 281° |
| 2026-04-28 09:54 | -38.03503 | 145.41589 | 7991 ft | 165 kts | 282° |
| 2026-04-28 09:54 | -38.03251 | 145.40167 | 7994 ft | 165 kts | 282° |
| 2026-04-28 09:55 | -38.03000 | 145.38743 | 7989 ft | 165 kts | 282° |
| 2026-04-28 09:55 | -38.02753 | 145.37337 | 7993 ft | 165 kts | 282° |
| 2026-04-28 09:55 | -38.02502 | 145.35912 | 7994 ft | 165 kts | 282° |
| 2026-04-28 09:55 | -38.02251 | 145.34491 | 7990 ft | 165 kts | 281° |
| 2026-04-28 09:56 | -38.02000 | 145.33069 | 7995 ft | 166 kts | 282° |
| 2026-04-28 09:56 | -38.01749 | 145.31643 | 7994 ft | 166 kts | 282° |
| 2026-04-28 09:56 | -38.01495 | 145.30217 | 7992 ft | 166 kts | 282° |
| 2026-04-28 09:56 | -38.01236 | 145.28796 | 7992 ft | 166 kts | 282° |
| 2026-04-28 09:57 | -38.00977 | 145.27371 | 7991 ft | 165 kts | 282° |
| 2026-04-28 09:57 | -38.00720 | 145.25951 | 7990 ft | 166 kts | 282° |
| 2026-04-28 09:57 | -38.00461 | 145.24524 | 7990 ft | 166 kts | 282° |
| 2026-04-28 09:57 | -38.00204 | 145.23108 | 7991 ft | 167 kts | 282° |
| 2026-04-28 09:58 | -37.99943 | 145.21676 | 7989 ft | 167 kts | 282° |
| 2026-04-28 09:58 | -37.99683 | 145.20243 | 7991 ft | 167 kts | 282° |
| 2026-04-28 09:58 | -37.99422 | 145.18810 | 7992 ft | 167 kts | 282° |
| 2026-04-28 09:58 | -37.99161 | 145.17376 | 7992 ft | 167 kts | 282° |
| 2026-04-28 09:59 | -37.98900 | 145.15943 | 7993 ft | 167 kts | 282° |
| 2026-04-28 09:59 | -37.98639 | 145.14512 | 7993 ft | 167 kts | 282° |
| 2026-04-28 09:59 | -37.98378 | 145.13081 | 7989 ft | 167 kts | 282° |
| 2026-04-28 09:59 | -37.98116 | 145.11648 | 7991 ft | 167 kts | 282° |
| 2026-04-28 10:00 | -37.97854 | 145.10215 | 7992 ft | 167 kts | 282° |
| 2026-04-28 10:00 | -37.97691 | 145.08765 | 7991 ft | 167 kts | 269° |
| 2026-04-28 10:00 | -37.97839 | 145.07306 | 7991 ft | 167 kts | 262° |
| 2026-04-28 10:00 | -37.98013 | 145.05852 | 7991 ft | 167 kts | 263° |
| 2026-04-28 10:01 | -37.98182 | 145.04396 | 7991 ft | 167 kts | 263° |
| 2026-04-28 10:01 | -37.98352 | 145.02938 | 7990 ft | 167 kts | 262° |
| 2026-04-28 10:01 | -37.98522 | 145.01484 | 7991 ft | 166 kts | 263° |
| 2026-04-28 10:01 | -37.98688 | 145.00066 | 7989 ft | 164 kts | 263° |
| 2026-04-28 10:02 | -37.98856 | 144.98622 | 7989 ft | 163 kts | 263° |
| 2026-04-28 10:02 | -37.99019 | 144.97225 | 7992 ft | 162 kts | 263° |
| 2026-04-28 10:02 | -37.99184 | 144.95814 | 7991 ft | 161 kts | 263° |
| 2026-04-28 10:02 | -37.99347 | 144.94409 | 7991 ft | 161 kts | 263° |
| 2026-04-28 10:03 | -37.99511 | 144.93003 | 7994 ft | 161 kts | 263° |
| 2026-04-28 10:03 | -37.99674 | 144.91601 | 7993 ft | 161 kts | 263° |
| 2026-04-28 10:03 | -37.99836 | 144.90200 | 7991 ft | 161 kts | 263° |
| 2026-04-28 10:03 | -37.99999 | 144.88797 | 7990 ft | 161 kts | 263° |
| 2026-04-28 10:04 | -38.00161 | 144.87398 | 7988 ft | 160 kts | 263° |
| 2026-04-28 10:04 | -38.00323 | 144.85996 | 7988 ft | 160 kts | 263° |
| 2026-04-28 10:04 | -38.00485 | 144.84596 | 7989 ft | 160 kts | 263° |
| 2026-04-28 10:04 | -38.00646 | 144.83198 | 7989 ft | 160 kts | 263° |
| 2026-04-28 10:05 | -38.00808 | 144.81798 | 7992 ft | 160 kts | 263° |
| 2026-04-28 10:05 | -38.00969 | 144.80399 | 7963 ft | 162 kts | 263° |
| 2026-04-28 10:05 | -38.01131 | 144.78984 | 7833 ft | 162 kts | 263° |
| 2026-04-28 10:05 | -38.01294 | 144.77566 | 7658 ft | 162 kts | 263° |
| 2026-04-28 10:06 | -38.01458 | 144.76151 | 7486 ft | 162 kts | 264° |
| 2026-04-28 10:06 | -38.01619 | 144.74741 | 7314 ft | 161 kts | 264° |
| 2026-04-28 10:06 | -38.01781 | 144.73336 | 7145 ft | 161 kts | 264° |
| 2026-04-28 10:06 | -38.01941 | 144.71932 | 6975 ft | 161 kts | 265° |
| 2026-04-28 10:07 | -38.02101 | 144.70530 | 6807 ft | 161 kts | 265° |
| 2026-04-28 10:07 | -38.02261 | 144.69129 | 6636 ft | 160 kts | 265° |
| 2026-04-28 10:07 | -38.02421 | 144.67730 | 6456 ft | 160 kts | 265° |
| 2026-04-28 10:07 | -38.02577 | 144.66351 | 6280 ft | 160 kts | 265° |
| 2026-04-28 10:08 | -38.02739 | 144.64937 | 6099 ft | 160 kts | 265° |
| 2026-04-28 10:08 | -38.02897 | 144.63547 | 5923 ft | 159 kts | 265° |
| 2026-04-28 10:08 | -38.03053 | 144.62174 | 5748 ft | 159 kts | 264° |
| 2026-04-28 10:08 | -38.03209 | 144.60796 | 5572 ft | 158 kts | 264° |
| 2026-04-28 10:09 | -38.03365 | 144.59416 | 5397 ft | 158 kts | 264° |
| 2026-04-28 10:09 | -38.03521 | 144.58041 | 5224 ft | 158 kts | 264° |
| 2026-04-28 10:09 | -38.03677 | 144.56666 | 5055 ft | 156 kts | 264° |
| 2026-04-28 10:09 | -38.03830 | 144.55309 | 4877 ft | 155 kts | 264° |
| 2026-04-28 10:10 | -38.03981 | 144.53963 | 4699 ft | 154 kts | 264° |
| 2026-04-28 10:10 | -38.04133 | 144.52619 | 4521 ft | 153 kts | 264° |
| 2026-04-28 10:10 | -38.04283 | 144.51281 | 4340 ft | 153 kts | 264° |
| 2026-04-28 10:10 | -38.04433 | 144.49946 | 4171 ft | 153 kts | 263° |
| 2026-04-28 10:11 | -38.04584 | 144.48609 | 3996 ft | 153 kts | 263° |
| 2026-04-28 10:11 | -38.04733 | 144.47277 | 3823 ft | 152 kts | 263° |
| 2026-04-28 10:11 | -38.04882 | 144.45945 | 3650 ft | 152 kts | 263° |
| 2026-04-28 10:11 | -38.04748 | 144.44632 | 3499 ft | 153 kts | 293° |
| 2026-04-28 10:12 | -38.04024 | 144.43639 | 3320 ft | 159 kts | 325° |
| 2026-04-28 10:12 | -38.03036 | 144.43004 | 3146 ft | 160 kts | 329° |
| 2026-04-28 10:12 | -38.02035 | 144.42379 | 3011 ft | 160 kts | 331° |
| 2026-04-28 10:12 | -38.00939 | 144.42199 | 3001 ft | 165 kts | 8° |
| 2026-04-28 10:13 | -37.99957 | 144.42931 | 2995 ft | 169 kts | 47° |
| 2026-04-28 10:13 | -37.99538 | 144.44294 | 2995 ft | 168 kts | 88° |
| 2026-04-28 10:13 | -37.99867 | 144.45676 | 2996 ft | 164 kts | 128° |
| 2026-04-28 10:13 | -38.00749 | 144.46492 | 2995 ft | 159 kts | 166° |
| 2026-04-28 10:14 | -38.01811 | 144.46500 | 2996 ft | 152 kts | 200° |
| 2026-04-28 10:14 | -38.02815 | 144.46080 | 2998 ft | 152 kts | 202° |
| 2026-04-28 10:14 | -38.03825 | 144.45676 | 2996 ft | 154 kts | 195° |
| 2026-04-28 10:14 | -38.04891 | 144.45878 | 2995 ft | 161 kts | 158° |
| 2026-04-28 10:15 | -38.05683 | 144.46894 | 2995 ft | 168 kts | 118° |
| 2026-04-28 10:15 | -38.05819 | 144.48354 | 2996 ft | 170 kts | 77° |
| 2026-04-28 10:15 | -38.05212 | 144.49600 | 2998 ft | 167 kts | 37° |
| 2026-04-28 10:15 | -38.04161 | 144.50099 | 2994 ft | 160 kts | 358° |
| 2026-04-28 10:16 | -38.03123 | 144.49748 | 2997 ft | 154 kts | 329° |
| 2026-04-28 10:16 | -38.02170 | 144.49123 | 2999 ft | 154 kts | 328° |
| 2026-04-28 10:16 | -38.01215 | 144.48500 | 2998 ft | 155 kts | 329° |
| 2026-04-28 10:16 | -38.00256 | 144.47882 | 2999 ft | 155 kts | 329° |
| 2026-04-28 10:17 | -37.99293 | 144.47262 | 2998 ft | 156 kts | 330° |
| 2026-04-28 10:17 | -37.98357 | 144.46569 | 2995 ft | 155 kts | 314° |
| 2026-04-28 10:17 | -37.97858 | 144.45403 | 2996 ft | 151 kts | 279° |
| 2026-04-28 10:17 | -37.97953 | 144.44121 | 2997 ft | 149 kts | 248° |
| 2026-04-28 10:18 | -37.98600 | 144.43112 | 3003 ft | 150 kts | 216° |
| 2026-04-28 10:18 | -37.99606 | 144.42731 | 3001 ft | 156 kts | 183° |
| 2026-04-28 10:18 | -38.00658 | 144.43142 | 3000 ft | 162 kts | 157° |
| 2026-04-28 10:18 | -38.01660 | 144.43803 | 3000 ft | 162 kts | 156° |
| 2026-04-28 10:19 | -38.02662 | 144.44457 | 3001 ft | 162 kts | 157° |
| 2026-04-28 10:19 | -38.03327 | 144.44887 | 3000 ft | 162 kts | 157° |
| 2026-04-28 10:19 | -38.04330 | 144.45531 | 3000 ft | 162 kts | 157° |
| 2026-04-28 10:19 | -38.05426 | 144.46803 | 3004 ft | 168 kts | 111° |
| 2026-04-28 10:20 | -38.05393 | 144.48243 | 3241 ft | 161 kts | 66° |
| 2026-04-28 10:20 | -38.05003 | 144.48984 | 3562 ft | 147 kts | 43° |
| 2026-04-28 10:20 | -38.04292 | 144.49901 | 3841 ft | 147 kts | 40° |
| 2026-04-28 10:20 | -38.03574 | 144.50829 | 4110 ft | 147 kts | 40° |
| 2026-04-28 10:21 | -38.02859 | 144.51763 | 4395 ft | 148 kts | 40° |
| 2026-04-28 10:21 | -38.02145 | 144.52700 | 4670 ft | 148 kts | 40° |
| 2026-04-28 10:21 | -38.01432 | 144.53637 | 4970 ft | 147 kts | 41° |
| 2026-04-28 10:21 | -38.00682 | 144.54617 | 5002 ft | 162 kts | 41° |
| 2026-04-28 10:22 | -37.99885 | 144.55661 | 5005 ft | 167 kts | 41° |
| 2026-04-28 10:22 | -37.99069 | 144.56731 | 5006 ft | 170 kts | 41° |
| 2026-04-28 10:22 | -37.98242 | 144.57816 | 5007 ft | 172 kts | 41° |
| 2026-04-28 10:22 | -37.97406 | 144.58912 | 5007 ft | 173 kts | 41° |
| 2026-04-28 10:23 | -37.96565 | 144.60014 | 5008 ft | 174 kts | 41° |
| 2026-04-28 10:23 | -37.95723 | 144.61116 | 5008 ft | 175 kts | 41° |
| 2026-04-28 10:23 | -37.94878 | 144.62221 | 5008 ft | 175 kts | 41° |
| 2026-04-28 10:23 | -37.94040 | 144.63318 | 5009 ft | 175 kts | 41° |
| 2026-04-28 10:24 | -37.93191 | 144.64428 | 5008 ft | 175 kts | 41° |
| 2026-04-28 10:24 | -37.92341 | 144.65539 | 5006 ft | 176 kts | 41° |
| 2026-04-28 10:24 | -37.91490 | 144.66651 | 5006 ft | 175 kts | 41° |
| 2026-04-28 10:24 | -37.90641 | 144.67760 | 5009 ft | 175 kts | 41° |
| 2026-04-28 10:25 | -37.89792 | 144.68869 | 5006 ft | 175 kts | 41° |
| 2026-04-28 10:25 | -37.88942 | 144.69978 | 5007 ft | 175 kts | 41° |
| 2026-04-28 10:25 | -37.88094 | 144.71085 | 5004 ft | 175 kts | 42° |
| 2026-04-28 10:25 | -37.87248 | 144.72189 | 5003 ft | 174 kts | 42° |
| 2026-04-28 10:26 | -37.86404 | 144.73290 | 5004 ft | 174 kts | 43° |
| 2026-04-28 10:26 | -37.85880 | 144.74665 | 4997 ft | 180 kts | 82° |
| 2026-04-28 10:26 | -37.85897 | 144.76253 | 4998 ft | 180 kts | 91° |
| 2026-04-28 10:26 | -37.85964 | 144.77837 | 4998 ft | 180 kts | 92° |
| 2026-04-28 10:27 | -37.86033 | 144.79418 | 4997 ft | 180 kts | 92° |
| 2026-04-28 10:27 | -37.86103 | 144.81003 | 4997 ft | 180 kts | 92° |
| 2026-04-28 10:27 | -37.86174 | 144.82584 | 4997 ft | 180 kts | 92° |
| 2026-04-28 10:27 | -37.86244 | 144.84165 | 4971 ft | 181 kts | 92° |
| 2026-04-28 10:28 | -37.86313 | 144.85746 | 4842 ft | 179 kts | 92° |
| 2026-04-28 10:28 | -37.86378 | 144.87310 | 4716 ft | 177 kts | 92° |
| 2026-04-28 10:28 | -37.86437 | 144.88843 | 4590 ft | 176 kts | 92° |
| 2026-04-28 10:29 | -37.86550 | 144.91922 | 4339 ft | 174 kts | 92° |
| 2026-04-28 10:29 | -37.86600 | 144.93453 | 4214 ft | 173 kts | 92° |
| 2026-04-28 10:29 | -37.86648 | 144.94977 | 4089 ft | 173 kts | 92° |
| 2026-04-28 10:29 | -37.86692 | 144.96489 | 4009 ft | 169 kts | 92° |
| 2026-04-28 10:30 | -37.86698 | 144.97947 | 4006 ft | 163 kts | 84° |
| 2026-04-28 10:30 | -37.86566 | 144.99340 | 4003 ft | 156 kts | 82° |
| 2026-04-28 10:30 | -37.86430 | 145.00675 | 4001 ft | 151 kts | 82° |
| 2026-04-28 10:30 | -37.86299 | 145.01976 | 3995 ft | 148 kts | 82° |
| 2026-04-28 10:31 | -37.86171 | 145.03274 | 3998 ft | 149 kts | 82° |
| 2026-04-28 10:31 | -37.86041 | 145.04580 | 3998 ft | 149 kts | 82° |
| 2026-04-28 10:31 | -37.85912 | 145.05888 | 3998 ft | 150 kts | 82° |
| 2026-04-28 10:31 | -37.85784 | 145.07198 | 3998 ft | 150 kts | 82° |
| 2026-04-28 10:32 | -37.85655 | 145.08525 | 3930 ft | 155 kts | 82° |
| 2026-04-28 10:32 | -37.85518 | 145.09912 | 3807 ft | 161 kts | 82° |
| 2026-04-28 10:32 | -37.85375 | 145.11312 | 3689 ft | 164 kts | 82° |
| 2026-04-28 10:32 | -37.85226 | 145.12754 | 3568 ft | 166 kts | 82° |
| 2026-04-28 10:33 | -37.85073 | 145.14208 | 3443 ft | 167 kts | 82° |
| 2026-04-28 10:33 | -37.84920 | 145.15666 | 3318 ft | 167 kts | 82° |
| 2026-04-28 10:33 | -37.84764 | 145.17121 | 3183 ft | 167 kts | 82° |
| 2026-04-28 10:33 | -37.84252 | 145.18397 | 3042 ft | 165 kts | 39° |
| 2026-04-28 10:34 | -37.83222 | 145.18875 | 3006 ft | 155 kts | 3° |
| 2026-04-28 10:34 | -37.82164 | 145.19009 | 3003 ft | 150 kts | 2° |
| 2026-04-28 10:34 | -37.81135 | 145.19133 | 3003 ft | 147 kts | 2° |
| 2026-04-28 10:34 | -37.80123 | 145.19258 | 3000 ft | 145 kts | 2° |
| 2026-04-28 10:35 | -37.79121 | 145.19380 | 2999 ft | 144 kts | 2° |
| 2026-04-28 10:35 | -37.78130 | 145.19506 | 2999 ft | 141 kts | 1° |
| 2026-04-28 10:35 | -37.77257 | 145.19150 | 2993 ft | 132 kts | 315° |
| 2026-04-28 10:35 | -37.76614 | 145.18340 | 2992 ft | 129 kts | 312° |
| 2026-04-28 10:36 | -37.75987 | 145.17551 | 2994 ft | 126 kts | 312° |
| 2026-04-28 10:36 | -37.75373 | 145.16774 | 3000 ft | 123 kts | 312° |
| 2026-04-28 10:36 | -37.74771 | 145.16009 | 2998 ft | 122 kts | 312° |
| 2026-04-28 10:36 | -37.74171 | 145.15250 | 2999 ft | 122 kts | 312° |
| 2026-04-28 10:37 | -37.73573 | 145.14492 | 2998 ft | 121 kts | 312° |
| 2026-04-28 10:37 | -37.73117 | 145.13633 | 3001 ft | 117 kts | 283° |
| 2026-04-28 10:37 | -37.72875 | 145.12667 | 3000 ft | 116 kts | 286° |
| 2026-04-28 10:37 | -37.72648 | 145.11693 | 2997 ft | 116 kts | 275° |
| 2026-04-28 10:38 | -37.72621 | 145.10678 | 3001 ft | 116 kts | 272° |
| 2026-04-28 10:38 | -37.72615 | 145.09662 | 2997 ft | 116 kts | 270° |
| 2026-04-28 10:38 | -37.72625 | 145.08610 | 2894 ft | 124 kts | 269° |
| 2026-04-28 10:38 | -37.72641 | 145.07492 | 2732 ft | 128 kts | 269° |
| 2026-04-28 10:39 | -37.72670 | 145.06370 | 2562 ft | 127 kts | 268° |
| 2026-04-28 10:39 | -37.72705 | 145.05250 | 2396 ft | 128 kts | 269° |
| 2026-04-28 10:39 | -37.72735 | 145.04126 | 2226 ft | 128 kts | 268° |
| 2026-04-28 10:39 | -37.72765 | 145.03008 | 2059 ft | 126 kts | 269° |
| 2026-04-28 10:40 | -37.72792 | 145.02021 | 1900 ft | 101 kts | 269° |
| 2026-04-28 10:40 | -37.72816 | 145.01211 | 1780 ft | 89 kts | 269° |
| 2026-04-28 10:40 | -37.72837 | 145.00432 | 1671 ft | 90 kts | 268° |
| 2026-04-28 10:40 | -37.72860 | 144.99580 | 1539 ft | 104 kts | 268° |
| 2026-04-28 10:41 | -37.72884 | 144.98669 | 1393 ft | 98 kts | 269° |
| 2026-04-28 10:41 | -37.72906 | 144.97875 | 1273 ft | 89 kts | 270° |
| 2026-04-28 10:41 | -37.72928 | 144.97080 | 1155 ft | 92 kts | 271° |
| 2026-04-28 10:41 | -37.72950 | 144.96273 | 1031 ft | 94 kts | 271° |
| 2026-04-28 10:42 | -37.72971 | 144.95446 | 907 ft | 95 kts | 271° |
| 2026-04-28 10:42 | -37.73003 | 144.94592 | 864 ft | 99 kts | 272° |
| 2026-04-28 10:42 | -37.73033 | 144.93686 | 1097 ft | 105 kts | 264° |
| 2026-04-28 10:42 | -37.73360 | 144.92898 | 1489 ft | 101 kts | 224° |
| 2026-04-28 10:43 | -37.74024 | 144.92591 | 1811 ft | 109 kts | 178° |
| 2026-04-28 10:43 | -37.74730 | 144.92960 | 2140 ft | 115 kts | 142° |
| 2026-04-28 10:43 | -37.75323 | 144.93636 | 2495 ft | 115 kts | 141° |
| 2026-04-28 10:43 | -37.75896 | 144.94315 | 2906 ft | 111 kts | 140° |
| 2026-04-28 10:44 | -37.76473 | 144.95061 | 3056 ft | 132 kts | 139° |
| 2026-04-28 10:44 | -37.77228 | 144.95916 | 3037 ft | 154 kts | 141° |
| 2026-04-28 10:44 | -37.78026 | 144.96815 | 3012 ft | 153 kts | 141° |
| 2026-04-28 10:44 | -37.78815 | 144.97702 | 3012 ft | 150 kts | 141° |
| 2026-04-28 10:45 | -37.79591 | 144.98569 | 3012 ft | 148 kts | 141° |
| 2026-04-28 10:45 | -37.80359 | 144.99429 | 3012 ft | 147 kts | 141° |
| 2026-04-28 10:45 | -37.81127 | 145.00278 | 3012 ft | 146 kts | 142° |
| 2026-04-28 10:45 | -37.81994 | 145.00854 | 2965 ft | 139 kts | 169° |
| 2026-04-28 10:46 | -37.82950 | 145.00899 | 2757 ft | 132 kts | 185° |
| 2026-04-28 10:46 | -37.83797 | 145.00793 | 2507 ft | 118 kts | 189° |
| 2026-04-28 10:46 | -37.84608 | 145.00635 | 2428 ft | 115 kts | 191° |
| 2026-04-28 10:46 | -37.85390 | 145.00467 | 2278 ft | 117 kts | 191° |
| 2026-04-28 10:47 | -37.86203 | 145.00285 | 2146 ft | 118 kts | 190° |
| 2026-04-28 10:47 | -37.87017 | 145.00155 | 2099 ft | 119 kts | 185° |
| 2026-04-28 10:47 | -37.87875 | 145.00093 | 1997 ft | 129 kts | 184° |
| 2026-04-28 10:47 | -37.88779 | 145.00030 | 1937 ft | 131 kts | 182° |
| 2026-04-28 10:48 | -37.89710 | 145.00019 | 1843 ft | 135 kts | 179° |
| 2026-04-28 10:48 | -37.90650 | 145.00061 | 1789 ft | 136 kts | 178° |
| 2026-04-28 10:48 | -37.91598 | 145.00096 | 1729 ft | 136 kts | 177° |
| 2026-04-28 10:48 | -37.92466 | 145.00521 | 1666 ft | 137 kts | 143° |
| 2026-04-28 10:49 | -37.92976 | 145.01500 | 1547 ft | 128 kts | 114° |
| 2026-04-28 10:49 | -37.93277 | 145.02446 | 1388 ft | 108 kts | 114° |
| 2026-04-28 10:49 | -37.93570 | 145.03296 | 1215 ft | 103 kts | 116° |
| 2026-04-28 10:49 | -37.93870 | 145.04102 | 1053 ft | 100 kts | 118° |
| 2026-04-28 10:50 | -37.94186 | 145.04921 | 998 ft | 106 kts | 118° |
| 2026-04-28 10:50 | -37.94413 | 145.05478 | 962 ft | 109 kts | 119° |
| 2026-04-28 10:50 | -37.94871 | 145.06656 | 897 ft | 113 kts | 113° |
| 2026-04-28 10:50 | -37.95143 | 145.07585 | 795 ft | 102 kts | 111° |
| 2026-04-28 10:51 | -37.95368 | 145.08324 | 656 ft | 86 kts | 113° |
| 2026-04-28 10:51 | -37.95633 | 145.08994 | 510 ft | 85 kts | 124° |
| 2026-04-28 10:51 | -37.96014 | 145.09550 | 401 ft | 83 kts | 143° |
| 2026-04-28 10:51 | -37.96537 | 145.09871 | 277 ft | 83 kts | 171° |
| 2026-04-28 10:52 | -37.97114 | 145.09929 | 122 ft | 83 kts | 178° |
| 2026-04-28 10:52 | -37.97634 | 145.09971 | 41 ft | 60 kts | 176° |
| 2026-04-28 10:52 | -37.97908 | 145.09994 | 41 ft | 29 kts | 176° |
| 2026-04-28 10:52 | -37.98076 | 145.10002 | 40 ft | 12 kts | 206° |
| 2026-04-28 10:53 | -37.98131 | 145.09926 | 39 ft | 12 kts | 229° |
| 2026-04-28 10:53 | -37.98191 | 145.09897 | 39 ft | 10 kts | 175° |
| 2026-04-28 10:53 | -37.98285 | 145.09905 | 40 ft | 17 kts | 176° |
| 2026-04-28 10:53 | -37.98376 | 145.09892 | 41 ft | 9 kts | 265° |
| 2026-04-28 10:54 | -37.98382 | 145.09780 | 42 ft | 16 kts | 268° |
| 2026-04-28 10:54 | -37.98307 | 145.09695 | 41 ft | 21 kts | 355° |
| 2026-04-28 10:54 | -37.98143 | 145.09681 | 41 ft | 26 kts | 356° |
| 2026-04-28 10:54 | -37.97943 | 145.09664 | 36 ft | 30 kts | 357° |
| 2026-04-28 10:55 | -37.97745 | 145.09646 | 38 ft | 25 kts | 356° |
| 2026-04-28 10:55 | -37.97577 | 145.09632 | 37 ft | 25 kts | 352° |
| 2026-04-28 10:55 | -37.97499 | 145.09512 | 45 ft | 9 kts | 278° |
| 2026-04-28 10:55 | -37.97498 | 145.09505 | 45 ft | 0 kts | 275° |